createdAt,value
2022-12-18T00:00:17.862Z,23.40
2022-12-18T00:05:52.093Z,23.70
2022-12-18T00:10:55.775Z,22.50
2022-12-18T00:16:05.529Z,20.70
2022-12-18T00:21:11.258Z,20.40
2022-12-18T00:26:17.498Z,21.00
2022-12-18T00:31:23.653Z,21.00
2022-12-18T00:36:33.178Z,20.70
2022-12-18T00:41:54.860Z,19.90
2022-12-18T00:46:58.019Z,17.00
2022-12-18T00:52:01.546Z,20.30
2022-12-18T00:57:04.750Z,20.50
2022-12-18T01:02:08.067Z,20.80
2022-12-18T01:07:11.358Z,20.10
2022-12-18T01:12:14.503Z,20.80
2022-12-18T01:17:17.600Z,19.80
2022-12-18T01:22:20.731Z,20.20
2022-12-18T01:27:23.926Z,19.40
2022-12-18T01:32:31.811Z,19.80
2022-12-18T01:37:35.041Z,22.20
2022-12-18T01:42:38.179Z,24.20
2022-12-18T01:48:16.806Z,22.60
2022-12-18T01:53:24.920Z,19.70
2022-12-18T01:58:41.706Z,17.80
2022-12-18T02:03:46.179Z,19.70
2022-12-18T02:08:59.179Z,21.40
2022-12-18T02:14:09.765Z,20.10
2022-12-18T02:19:21.984Z,21.80
2022-12-18T02:24:44.063Z,20.40
2022-12-18T02:35:07.645Z,21.40
2022-12-18T02:40:13.668Z,19.30
2022-12-18T02:45:17.050Z,18.50
2022-12-18T02:50:42.786Z,19.20
2022-12-18T02:56:20.063Z,19.50
2022-12-18T03:01:45.688Z,24.30
2022-12-18T03:06:53.754Z,23.00
2022-12-18T03:12:26.119Z,20.00
2022-12-18T03:17:34.820Z,18.60
2022-12-18T03:22:40.212Z,18.40
2022-12-18T03:27:48.659Z,18.80
2022-12-18T03:33:04.835Z,19.10
2022-12-18T03:38:09.013Z,21.90
2022-12-18T03:43:31.660Z,20.90
2022-12-18T03:48:57.527Z,18.00
2022-12-18T03:54:05.197Z,19.10
2022-12-18T03:59:16.709Z,18.50
2022-12-18T04:04:21.437Z,17.40
2022-12-18T04:09:25.504Z,21.60
2022-12-18T04:14:29.449Z,20.50
2022-12-18T04:19:33.137Z,20.00
2022-12-18T04:24:37.152Z,17.60
2022-12-18T04:29:47.019Z,16.90
2022-12-18T04:34:51.631Z,18.50
2022-12-18T04:39:55.065Z,21.70
2022-12-18T04:45:04.416Z,19.90
2022-12-18T04:50:08.538Z,20.70
2022-12-18T04:55:11.704Z,17.80
2022-12-18T05:00:15.596Z,19.10
2022-12-18T05:05:19.083Z,19.50
2022-12-18T05:10:22.173Z,19.70
2022-12-18T05:15:30.828Z,18.40
2022-12-18T05:20:34.164Z,19.00
2022-12-18T05:25:37.360Z,23.20
2022-12-18T05:30:45.417Z,26.20
2022-12-18T05:35:57.021Z,22.50
2022-12-18T05:46:15.418Z,20.90
2022-12-18T05:51:20.934Z,20.20
2022-12-18T05:56:24.731Z,20.70
2022-12-18T06:01:28.028Z,19.20
2022-12-18T06:06:31.285Z,23.70
2022-12-18T06:11:34.595Z,25.00
2022-12-18T06:16:37.877Z,22.70
2022-12-18T06:21:41.007Z,18.10
2022-12-18T06:26:44.222Z,19.10
2022-12-18T06:31:47.400Z,19.40
2022-12-18T06:36:50.469Z,18.60
2022-12-18T06:41:53.631Z,18.60
2022-12-18T06:46:56.821Z,18.20
2022-12-18T06:51:59.892Z,25.50
2022-12-18T06:57:03.005Z,24.70
2022-12-18T07:02:06.254Z,25.00
2022-12-18T07:07:09.510Z,20.60
2022-12-18T07:12:12.706Z,20.90
2022-12-18T07:17:15.909Z,21.20
2022-12-18T07:22:19.381Z,19.60
2022-12-18T07:27:23.270Z,21.20
2022-12-18T07:32:26.467Z,20.80
2022-12-18T07:37:29.680Z,23.50
2022-12-18T07:42:32.891Z,25.20
2022-12-18T07:47:42.319Z,24.00
2022-12-18T07:52:45.595Z,20.80
2022-12-18T07:57:51.400Z,20.20
2022-12-18T08:02:56.664Z,19.00
2022-12-18T08:08:00.077Z,21.60
2022-12-18T08:13:05.213Z,25.70
2022-12-18T08:18:13.947Z,26.20
2022-12-18T08:23:17.660Z,23.00
2022-12-18T08:28:20.795Z,23.70
2022-12-18T08:33:24.692Z,23.10
2022-12-18T08:38:28.096Z,24.70
2022-12-18T08:43:50.006Z,21.50
2022-12-18T08:48:54.581Z,24.70
2022-12-18T08:53:57.748Z,29.50
2022-12-18T08:59:00.977Z,28.80
2022-12-18T09:04:04.748Z,26.30
2022-12-18T09:09:11.725Z,25.30
2022-12-18T09:14:14.875Z,27.40
2022-12-18T09:19:18.000Z,27.20
2022-12-18T09:24:23.980Z,28.10
2022-12-18T09:29:27.074Z,28.00
2022-12-18T09:34:30.216Z,27.30
2022-12-18T09:39:33.318Z,28.50
2022-12-18T09:44:50.015Z,29.50
2022-12-18T09:50:02.138Z,29.60
2022-12-18T10:00:27.207Z,28.20
2022-12-18T10:05:48.806Z,26.10
2022-12-18T10:11:02.801Z,27.60
2022-12-18T10:16:09.010Z,28.10
2022-12-18T10:21:20.335Z,26.70
2022-12-18T10:26:24.301Z,27.20
2022-12-18T10:31:27.418Z,32.90
2022-12-18T10:36:30.689Z,26.60
2022-12-18T10:41:33.945Z,28.10
2022-12-18T10:46:38.032Z,27.80
2022-12-18T10:51:41.368Z,26.90
2022-12-18T10:56:45.414Z,26.60
2022-12-18T11:01:59.723Z,25.40
2022-12-18T11:07:06.160Z,26.60
2022-12-18T11:12:21.316Z,27.60
2022-12-18T11:17:36.643Z,27.60
2022-12-18T11:22:41.379Z,26.60
2022-12-18T11:28:46.670Z,26.20
2022-12-18T11:34:26.772Z,26.80
2022-12-18T11:39:33.192Z,26.90
2022-12-18T11:44:51.841Z,27.50
2022-12-18T11:49:58.248Z,26.80
2022-12-18T11:55:06.255Z,27.00
2022-12-18T12:00:19.964Z,24.70
2022-12-18T12:05:51.164Z,26.10
2022-12-18T12:11:15.923Z,26.30
2022-12-18T12:16:23.434Z,27.10
2022-12-18T12:21:38.605Z,28.10
2022-12-18T12:27:24.134Z,27.80
2022-12-18T12:32:55.396Z,28.50
2022-12-18T12:38:28.338Z,27.70
2022-12-18T12:49:02.170Z,24.70
2022-12-18T12:54:13.825Z,27.30
2022-12-18T12:59:31.809Z,25.40
2022-12-18T13:05:15.931Z,26.30
2022-12-18T13:10:25.762Z,26.50
2022-12-18T13:15:47.265Z,26.10
2022-12-18T13:26:24.706Z,31.60
2022-12-18T13:31:41.785Z,28.80
2022-12-18T13:36:45.558Z,29.50
2022-12-18T13:42:31.890Z,29.20
2022-12-18T13:47:39.202Z,31.10
2022-12-18T13:52:44.755Z,26.90
2022-12-18T13:57:47.919Z,27.10
2022-12-18T14:02:59.232Z,24.10
2022-12-18T14:08:19.056Z,27.10
2022-12-18T14:13:31.641Z,28.70
2022-12-18T14:18:53.520Z,30.90
2022-12-18T14:24:23.050Z,31.10
2022-12-18T14:29:28.063Z,28.30
2022-12-18T14:34:31.293Z,26.20
2022-12-18T14:39:34.412Z,27.20
2022-12-18T14:44:50.644Z,27.00
2022-12-18T14:50:01.246Z,27.80
2022-12-18T14:55:04.729Z,28.20
2022-12-18T15:00:17.048Z,26.40
2022-12-18T15:05:26.486Z,30.30
2022-12-18T15:10:34.390Z,29.50
2022-12-18T15:15:37.576Z,25.30
2022-12-18T15:20:42.918Z,26.00
2022-12-18T15:25:48.067Z,24.70
2022-12-18T15:31:12.648Z,25.40
2022-12-18T15:36:21.371Z,23.10
2022-12-18T15:41:33.653Z,22.30
2022-12-18T15:46:50.742Z,27.10
2022-12-18T15:51:57.805Z,26.60
2022-12-18T15:57:19.673Z,26.70
2022-12-18T16:02:24.261Z,28.10
2022-12-18T16:07:30.607Z,24.10
2022-12-18T16:12:34.534Z,27.60
2022-12-18T16:17:39.304Z,25.40
2022-12-18T16:22:45.891Z,28.50
2022-12-18T16:28:07.926Z,23.90
2022-12-18T16:33:12.176Z,29.70
2022-12-18T16:38:15.554Z,27.40
2022-12-18T16:43:18.698Z,28.60
2022-12-18T16:48:23.069Z,25.50
2022-12-18T16:53:26.242Z,25.20
2022-12-18T16:58:29.910Z,24.00
2022-12-18T17:03:33.114Z,23.10
2022-12-18T17:08:36.271Z,25.20
2022-12-18T17:13:40.024Z,27.90
2022-12-18T17:18:43.916Z,24.50
2022-12-18T17:23:47.326Z,25.40
2022-12-18T17:28:50.523Z,25.80
2022-12-18T17:33:53.929Z,27.70
2022-12-18T17:39:00.288Z,24.30
2022-12-18T17:44:05.959Z,22.40
2022-12-18T17:49:10.883Z,20.70
2022-12-18T17:54:16.011Z,22.50
2022-12-18T17:59:19.200Z,22.90
2022-12-18T18:04:22.334Z,30.10
2022-12-18T18:09:25.556Z,27.30
2022-12-18T18:14:28.830Z,28.20
2022-12-18T18:19:33.675Z,27.70
2022-12-18T18:24:36.923Z,22.50
2022-12-18T18:29:40.315Z,23.10
2022-12-18T18:34:43.470Z,23.70
2022-12-18T18:39:46.688Z,29.90
2022-12-18T18:44:49.802Z,27.40
2022-12-18T18:49:53.013Z,24.10
2022-12-18T18:55:12.085Z,48.90
2022-12-18T19:00:16.843Z,23.20
2022-12-18T19:05:20.417Z,22.60
2022-12-18T19:10:23.745Z,23.00
2022-12-18T19:15:26.945Z,24.30
2022-12-18T19:20:30.526Z,24.90
2022-12-18T19:25:38.562Z,23.30
2022-12-18T19:30:45.078Z,24.30
2022-12-18T19:35:48.588Z,24.00
2022-12-18T19:40:52.607Z,23.90
2022-12-18T19:45:56.127Z,22.20
2022-12-18T19:51:03.896Z,22.50
2022-12-18T19:56:09.047Z,22.70
2022-12-18T20:01:16.227Z,22.60
2022-12-18T20:06:29.283Z,26.50
2022-12-18T20:11:38.865Z,25.10
2022-12-18T20:16:45.817Z,24.70
2022-12-18T20:21:49.569Z,20.50
2022-12-18T20:26:52.834Z,19.60
2022-12-18T20:31:56.202Z,21.20
2022-12-18T20:36:59.403Z,19.90
2022-12-18T20:42:03.567Z,18.20
2022-12-18T20:47:08.578Z,21.70
2022-12-18T20:52:12.967Z,23.10
2022-12-18T20:57:16.195Z,21.60
2022-12-18T21:02:19.548Z,20.40
2022-12-18T21:07:23.089Z,18.60
2022-12-18T21:12:40.397Z,17.70
2022-12-18T21:17:48.148Z,19.60
2022-12-18T21:22:51.618Z,20.60
2022-12-18T21:27:57.224Z,25.40
2022-12-18T21:33:00.646Z,22.80
2022-12-18T21:38:05.765Z,22.50
2022-12-18T21:43:29.053Z,21.80
2022-12-18T21:48:32.321Z,19.70
2022-12-18T21:53:35.474Z,18.10
2022-12-18T21:58:38.592Z,18.70
2022-12-18T22:03:58.896Z,18.10
2022-12-18T22:09:02.160Z,23.30
2022-12-18T22:14:05.392Z,24.70
2022-12-18T22:19:09.949Z,23.70
2022-12-18T22:24:15.104Z,19.10
2022-12-18T22:29:42.163Z,17.00
2022-12-18T22:34:45.396Z,17.10
2022-12-18T22:39:48.539Z,16.90
2022-12-18T22:44:51.848Z,16.40
2022-12-18T22:49:54.950Z,17.90
2022-12-18T22:54:58.168Z,18.80
2022-12-18T23:00:01.310Z,20.10
2022-12-18T23:05:07.827Z,18.50
2022-12-18T23:10:11.172Z,18.50
2022-12-18T23:15:14.367Z,14.70
2022-12-18T23:20:20.112Z,15.90
2022-12-18T23:25:23.708Z,14.20
2022-12-18T23:30:26.857Z,14.10
2022-12-18T23:35:30.692Z,14.00
2022-12-18T23:40:33.948Z,13.40
2022-12-18T23:45:38.354Z,15.90
2022-12-18T23:50:41.472Z,15.40
2022-12-18T23:55:45.495Z,13.60
